Time;durP1;ratioP1;P1;durP2;ratioP2;P2;SDS_P1;SDS_P2;PMS_P1;PMS_P2;Temp;Humidity;BMP_temperature;BMP_pressure;BME280_temperature;BME280_humidity;BME280_pressure;Samples;Min_cycle;Max_cycle;Signal;HPM_P1;HPM_P2
2022/12/15 00:39:58;;;;;;;16.60;5.97;;;;;;;;;;5011694;28;20161;-66
2022/12/15 00:42:24;;;;;;;15.23;6.25;;;;;;;;;;5038068;28;20088;-67
2022/12/15 00:44:51;;;;;;;17.67;7.10;;;;;;;;;;5028768;28;20057;-67
2022/12/15 00:47:21;;;;;;;15.68;5.93;;;;;;;;;;5020695;28;20067;-67
2022/12/15 01:20:13;;;;;;;22.02;6.97;;;;;;;;;;5033445;28;20166;-66
2022/12/15 01:22:41;;;;;;;16.23;6.13;;;;;;;;;;5036081;28;20053;-67
2022/12/15 01:25:09;;;;;;;14.63;6.25;;;;;;;;;;5049358;28;20040;-67
2022/12/15 01:27:35;;;;;;;14.20;5.90;;;;;;;;;;5027816;28;20059;-67
2022/12/15 01:30:02;;;;;;;15.02;5.80;;;;;;;;;;5035074;28;20121;-66
2022/12/15 01:32:29;;;;;;;17.13;6.32;;;;;;;;;;5055067;28;20056;-67
2022/12/15 01:34:55;;;;;;;14.40;5.22;;;;;;;;;;5047811;28;20111;-66
2022/12/15 01:37:22;;;;;;;16.30;5.72;;;;;;;;;;5033666;28;20052;-67
2022/12/15 01:42:34;;;;;;;15.05;5.32;;;;;;;;;;5052601;28;20113;-66
2022/12/15 01:45:15;;;;;;;17.92;5.72;;;;;;;;;;5062348;28;20051;-66
2022/12/15 01:47:42;;;;;;;15.65;5.57;;;;;;;;;;5014639;28;20052;-66
2022/12/15 01:50:13;;;;;;;16.98;5.88;;;;;;;;;;5001491;28;20049;-66
2022/12/15 01:52:39;;;;;;;16.17;6.07;;;;;;;;;;5020517;28;20052;-66
2022/12/15 01:55:09;;;;;;;13.25;5.75;;;;;;;;;;5018339;28;20067;-67
2022/12/15 01:57:36;;;;;;;17.83;6.28;;;;;;;;;;5027610;28;20128;-66
2022/12/15 02:00:05;;;;;;;13.05;5.47;;;;;;;;;;5031047;28;20053;-66
2022/12/15 02:02:31;;;;;;;;;;;;;;;;;;5040025;28;20056;-67
2022/12/15 02:04:58;;;;;;;14.02;5.13;;;;;;;;;;5033158;28;19996;-66
2022/12/15 02:07:25;;;;;;;12.77;5.25;;;;;;;;;;4992011;28;20333;-66
2022/12/15 02:09:53;;;;;;;14.27;5.57;;;;;;;;;;5011234;28;20061;-66
2022/12/15 02:12:27;;;;;;;14.80;5.53;;;;;;;;;;5011353;28;20048;-66
2022/12/15 02:14:59;;;;;;;12.25;5.00;;;;;;;;;;5048300;28;20307;-66
2022/12/15 02:17:34;;;;;;;15.18;5.15;;;;;;;;;;5029854;28;20048;-66
2022/12/15 02:20:26;;;;;;;14.60;4.93;;;;;;;;;;5011565;28;20338;-66
2022/12/15 02:23:03;;;;;;;14.88;5.13;;;;;;;;;;5043791;28;20053;-66
2022/12/15 02:25:40;;;;;;;11.13;5.20;;;;;;;;;;5027337;28;20045;-66
2022/12/15 02:28:10;;;;;;;16.38;5.28;;;;;;;;;;4989783;28;20057;-66
2022/12/15 02:30:44;;;;;;;14.10;5.63;;;;;;;;;;5029939;28;20053;-66
2022/12/15 02:33:14;;;;;;;16.10;5.45;;;;;;;;;;5025410;28;20052;-67
2022/12/15 02:35:46;;;;;;;16.67;5.10;;;;;;;;;;5057626;28;20067;-66
2022/12/15 02:38:12;;;;;;;13.80;5.25;;;;;;;;;;5036755;28;20060;-66
2022/12/15 02:40:39;;;;;;;16.13;6.45;;;;;;;;;;5018311;28;20056;-66
2022/12/15 02:43:07;;;;;;;14.18;5.38;;;;;;;;;;5030179;28;20068;-65
2022/12/15 02:45:35;;;;;;;15.15;5.65;;;;;;;;;;5041357;28;20116;-66
2022/12/15 02:48:10;;;;;;;13.77;4.93;;;;;;;;;;5030724;28;20053;-66
2022/12/15 02:53:20;;;;;;;11.65;4.82;;;;;;;;;;5232036;22;20053;-67
2022/12/15 02:55:51;;;;;;;13.00;4.60;;;;;;;;;;4971548;28;20062;-66
2022/12/15 02:58:22;;;;;;;14.77;5.30;;;;;;;;;;4976157;28;20049;-66
2022/12/15 03:00:51;;;;;;;10.70;4.70;;;;;;;;;;5010501;28;20393;-66
2022/12/15 03:03:20;;;;;;;;;;;;;;;;;;4983822;28;20226;-66
2022/12/15 03:05:52;;;;;;;14.75;4.70;;;;;;;;;;5009456;28;19924;-66
2022/12/15 03:08:19;;;;;;;14.55;4.90;;;;;;;;;;5049852;28;20048;-66
2022/12/15 03:10:46;;;;;;;14.05;4.82;;;;;;;;;;5051477;28;20395;-66
2022/12/15 03:13:13;;;;;;;11.57;4.78;;;;;;;;;;5014958;28;20053;-67
2022/12/15 03:15:40;;;;;;;12.25;4.75;;;;;;;;;;5002188;28;20389;-66
2022/12/15 03:18:06;;;;;;;12.57;4.88;;;;;;;;;;5023127;28;20060;-65
2022/12/15 03:20:33;;;;;;;11.15;4.80;;;;;;;;;;5053158;28;20294;-67
2022/12/15 03:23:01;;;;;;;14.00;5.45;;;;;;;;;;5024601;28;20080;-66
2022/12/15 03:25:28;;;;;;;13.25;5.05;;;;;;;;;;5048867;28;20060;-67
2022/12/15 03:27:55;;;;;;;11.70;4.15;;;;;;;;;;5000200;28;20066;-66
2022/12/15 03:30:22;;;;;;;13.80;5.13;;;;;;;;;;4991219;28;20045;-67
2022/12/15 03:32:49;;;;;;;14.75;4.60;;;;;;;;;;5019931;28;20304;-67
2022/12/15 03:35:16;;;;;;;19.05;4.95;;;;;;;;;;5004467;28;20052;-66
2022/12/15 03:37:43;;;;;;;15.10;5.10;;;;;;;;;;5005282;28;20081;-66
2022/12/15 03:40:13;;;;;;;17.63;4.80;;;;;;;;;;5006370;28;20053;-66
2022/12/15 03:42:48;;;;;;;13.23;4.70;;;;;;;;;;5046014;28;20129;-66
2022/12/15 03:45:16;;;;;;;10.20;4.15;;;;;;;;;;5015679;28;20075;-66
2022/12/15 03:47:44;;;;;;;14.70;5.10;;;;;;;;;;5007158;28;20044;-66
2022/12/15 03:50:11;;;;;;;12.57;4.95;;;;;;;;;;5026135;28;20052;-66
2022/12/15 03:52:38;;;;;;;12.13;4.88;;;;;;;;;;5010652;28;20060;-67
2022/12/15 03:55:06;;;;;;;10.25;4.38;;;;;;;;;;5019840;28;20053;-66
2022/12/15 03:57:34;;;;;;;14.05;4.22;;;;;;;;;;5024630;28;20131;-66
2022/12/15 04:00:01;;;;;;;12.70;5.40;;;;;;;;;;5041260;28;20160;-67
2022/12/15 04:02:27;;;;;;;12.32;4.50;;;;;;;;;;5017785;28;20061;-66
2022/12/15 04:04:54;;;;;;;12.27;4.88;;;;;;;;;;4991592;28;20053;-66
2022/12/15 04:07:20;;;;;;;14.15;4.53;;;;;;;;;;5001950;28;20045;-67
2022/12/15 04:09:47;;;;;;;18.15;5.45;;;;;;;;;;5020980;28;20118;-65
2022/12/15 04:12:13;;;;;;;13.15;4.75;;;;;;;;;;5014469;28;20059;-66
2022/12/15 04:14:42;;;;;;;15.75;5.47;;;;;;;;;;4993354;28;20046;-66
2022/12/15 04:17:09;;;;;;;11.13;4.70;;;;;;;;;;5021533;28;20081;-67
2022/12/15 04:22:19;;;;;;;15.18;4.85;;;;;;;;;;5022934;28;20065;-66
2022/12/15 05:33:12;;;;;;;11.57;4.38;;;;;;;;;;5010800;28;20044;-67
2022/12/15 05:35:39;;;;;;;11.00;4.93;;;;;;;;;;5013460;28;21448;-66
2022/12/15 05:38:06;;;;;;;10.32;4.13;;;;;;;;;;5015983;28;20049;-67
2022/12/15 05:40:33;;;;;;;11.82;4.47;;;;;;;;;;5019193;28;20053;-66
2022/12/15 05:42:59;;;;;;;11.85;4.88;;;;;;;;;;5000984;28;20060;-66
2022/12/15 05:45:26;;;;;;;12.52;4.43;;;;;;;;;;4969818;28;20133;-67
2022/12/15 05:47:55;;;;;;;12.70;4.60;;;;;;;;;;5011635;28;20061;-66
2022/12/15 05:50:21;;;;;;;;;;;;;;;;;;5019552;28;20053;-66
2022/12/15 05:52:49;;;;;;;14.45;4.78;;;;;;;;;;5014755;28;20034;-66
2022/12/15 05:55:16;;;;;;;12.73;3.95;;;;;;;;;;4964090;28;20053;-67
2022/12/15 05:57:42;;;;;;;12.00;4.22;;;;;;;;;;5007315;28;20045;-66
2022/12/15 06:00:10;;;;;;;13.93;4.68;;;;;;;;;;5018687;28;20144;-66
2022/12/15 06:02:36;;;;;;;16.00;5.05;;;;;;;;;;4985573;28;20240;-65
2022/12/15 06:05:03;;;;;;;12.60;4.90;;;;;;;;;;5002363;28;20060;-65
2022/12/15 06:07:29;;;;;;;11.63;4.38;;;;;;;;;;5007056;28;20075;-65
2022/12/15 06:09:57;;;;;;;10.45;4.43;;;;;;;;;;5034376;28;20077;-66
2022/12/15 06:12:24;;;;;;;14.73;5.20;;;;;;;;;;5014728;28;20053;-65
2022/12/15 06:14:51;;;;;;;14.73;4.85;;;;;;;;;;5027309;28;20065;-65
2022/12/15 06:17:17;;;;;;;10.95;4.45;;;;;;;;;;5001198;28;20083;-65
2022/12/15 06:19:44;;;;;;;11.70;4.43;;;;;;;;;;5004513;28;20049;-65
2022/12/15 06:22:11;;;;;;;13.07;4.95;;;;;;;;;;5002114;28;20053;-65
2022/12/15 06:24:37;;;;;;;12.45;4.53;;;;;;;;;;4998517;28;20101;-64
2022/12/15 06:27:05;;;;;;;10.80;4.35;;;;;;;;;;5000188;28;20057;-65
2022/12/15 06:29:32;;;;;;;12.65;4.70;;;;;;;;;;5011896;28;20052;-65
2022/12/15 06:31:58;;;;;;;16.92;4.65;;;;;;;;;;5017913;28;20153;-64
2022/12/15 06:34:25;;;;;;;14.88;4.60;;;;;;;;;;5010195;28;20052;-65
2022/12/15 06:36:52;;;;;;;11.45;4.80;;;;;;;;;;5006347;28;20052;-65
2022/12/15 06:39:19;;;;;;;15.38;5.85;;;;;;;;;;4991796;28;20144;-65
2022/12/15 06:41:45;;;;;;;12.77;4.90;;;;;;;;;;5016060;28;20271;-65
2022/12/15 06:44:14;;;;;;;13.57;4.80;;;;;;;;;;5007177;28;20049;-66
2022/12/15 06:46:45;;;;;;;11.60;4.47;;;;;;;;;;5014329;28;20064;-64
2022/12/15 06:49:12;;;;;;;17.90;5.13;;;;;;;;;;4996717;28;20151;-66
2022/12/15 06:51:40;;;;;;;14.60;3.90;;;;;;;;;;5010719;28;20145;-66
2022/12/15 06:54:07;;;;;;;15.63;4.47;;;;;;;;;;5022572;28;20060;-66
2022/12/15 06:56:35;;;;;;;16.13;5.18;;;;;;;;;;5010165;28;20060;-66
2022/12/15 06:59:02;;;;;;;11.35;4.55;;;;;;;;;;5035395;28;20053;-65
2022/12/15 07:01:30;;;;;;;12.23;4.82;;;;;;;;;;5040711;28;20283;-66
2022/12/15 07:03:58;;;;;;;10.57;4.53;;;;;;;;;;4997628;28;20053;-66
2022/12/15 07:06:25;;;;;;;11.90;4.97;;;;;;;;;;5007743;28;20045;-66
2022/12/15 07:08:55;;;;;;;14.23;5.38;;;;;;;;;;5039203;28;20055;-65
2022/12/15 07:11:22;;;;;;;13.35;4.63;;;;;;;;;;5016002;28;20041;-65
2022/12/15 07:13:49;;;;;;;12.55;4.38;;;;;;;;;;5024718;28;20123;-66
2022/12/15 07:16:16;;;;;;;14.10;4.60;;;;;;;;;;5011562;28;20057;-68
2022/12/15 07:18:44;;;;;;;13.43;4.97;;;;;;;;;;4997361;28;20053;-66
2022/12/15 07:21:11;;;;;;;12.48;4.95;;;;;;;;;;5013993;28;20048;-66
2022/12/15 07:23:38;;;;;;;13.13;4.50;;;;;;;;;;5010933;28;20087;-68
2022/12/15 07:26:05;;;;;;;11.82;5.07;;;;;;;;;;5029370;28;20106;-68
2022/12/15 07:28:32;;;;;;;12.60;5.05;;;;;;;;;;5012861;28;20113;-67
2022/12/15 07:31:02;;;;;;;11.23;4.85;;;;;;;;;;5024625;28;20124;-67
2022/12/15 07:33:28;;;;;;;14.15;4.75;;;;;;;;;;4954938;28;20354;-67
2022/12/15 07:36:00;;;;;;;12.45;5.00;;;;;;;;;;5016207;28;20076;-66
2022/12/15 07:38:27;;;;;;;12.75;4.80;;;;;;;;;;5014021;28;20135;-66
2022/12/15 07:40:54;;;;;;;12.38;5.25;;;;;;;;;;5014119;28;20052;-67
2022/12/15 07:43:21;;;;;;;11.07;4.20;;;;;;;;;;4987175;28;20067;-68
2022/12/15 07:45:51;;;;;;;13.05;5.05;;;;;;;;;;5013931;28;20052;-67
2022/12/15 07:48:18;;;;;;;15.48;5.15;;;;;;;;;;5010738;28;20048;-66
2022/12/15 07:51:20;;;;;;;13.48;4.50;;;;;;;;;;4973274;28;20074;-70
2022/12/15 08:16:06;;;;;;;12.50;4.63;;;;;;;;;;4866938;27;20460;-70
2022/12/15 08:27:41;;;;;;;16.25;4.55;;;;;;;;;;4589930;27;13223422;-68
2022/12/15 08:30:28;;;;;;;;;;;;;;;;;;4906313;28;20055;-66
2022/12/15 08:32:57;;;;;;;12.38;4.30;;;;;;;;;;4902215;28;19922;-68
2022/12/15 08:35:24;;;;;;;12.32;4.28;;;;;;;;;;4940813;28;20051;-68
2022/12/15 08:37:51;;;;;;;13.30;4.93;;;;;;;;;;4968992;28;20057;-68
2022/12/15 08:40:18;;;;;;;15.05;5.20;;;;;;;;;;4991796;28;20058;-70
2022/12/15 08:42:45;;;;;;;12.75;4.93;;;;;;;;;;4943158;28;20124;-69
2022/12/15 08:45:15;;;;;;;14.20;4.90;;;;;;;;;;4975196;28;20147;-68
2022/12/15 08:47:42;;;;;;;15.18;5.80;;;;;;;;;;5004399;28;20052;-67
2022/12/15 08:50:12;;;;;;;15.65;6.05;;;;;;;;;;5049133;28;20130;-68
2022/12/15 08:52:42;;;;;;;14.98;5.32;;;;;;;;;;4996244;28;20049;-67
2022/12/15 08:55:16;;;;;;;14.02;5.40;;;;;;;;;;4966943;28;20053;-69
2022/12/15 08:57:48;;;;;;;11.60;4.78;;;;;;;;;;4974284;28;20061;-67
2022/12/15 09:00:15;;;;;;;16.27;4.65;;;;;;;;;;5002771;28;20049;-69
2022/12/15 09:02:41;;;;;;;16.17;4.95;;;;;;;;;;5034921;28;20141;-66
2022/12/15 09:05:21;;;;;;;12.93;5.38;;;;;;;;;;4988883;28;20060;-74
2022/12/15 09:07:47;;;;;;;11.32;5.35;;;;;;;;;;5062395;28;20056;-66
2022/12/15 09:10:22;;;;;;;17.42;6.40;;;;;;;;;;5038066;28;20061;-67
2022/12/15 09:15:47;;;;;;;12.63;4.97;;;;;;;;;;4999493;28;20122;-67
2022/12/15 09:18:13;;;;;;;14.10;5.15;;;;;;;;;;5042807;28;20136;-66
2022/12/15 09:20:41;;;;;;;17.63;5.35;;;;;;;;;;5035787;28;20118;-67
2022/12/15 09:23:17;;;;;;;13.57;6.15;;;;;;;;;;5032982;28;20060;-67
2022/12/15 09:25:45;;;;;;;20.92;5.80;;;;;;;;;;5018563;28;20056;-66
2022/12/15 09:28:13;;;;;;;16.05;6.00;;;;;;;;;;5032623;28;20106;-68
2022/12/15 09:30:40;;;;;;;12.32;5.45;;;;;;;;;;5045663;28;20052;-68
2022/12/15 09:33:09;;;;;;;15.98;5.43;;;;;;;;;;5021335;28;20063;-69
2022/12/15 09:35:36;;;;;;;12.48;4.82;;;;;;;;;;4985845;28;20060;-67
2022/12/15 09:38:04;;;;;;;13.80;5.57;;;;;;;;;;5014716;28;20156;-66
2022/12/15 09:40:32;;;;;;;15.68;5.47;;;;;;;;;;5033523;28;20056;-68
2022/12/15 09:42:59;;;;;;;13.60;5.60;;;;;;;;;;5016165;28;20067;-68
2022/12/15 09:45:30;;;;;;;17.20;5.90;;;;;;;;;;5007908;28;20109;-67
2022/12/15 09:47:59;;;;;;;17.67;5.65;;;;;;;;;;5015134;28;20048;-67
2022/12/15 09:50:31;;;;;;;13.52;6.15;;;;;;;;;;5027693;28;20053;-68
2022/12/15 09:53:03;;;;;;;16.08;6.00;;;;;;;;;;5019198;28;20059;-67
2022/12/15 09:55:32;;;;;;;17.60;6.55;;;;;;;;;;5002278;28;20052;-67
2022/12/15 09:58:01;;;;;;;16.95;5.93;;;;;;;;;;5023168;28;20059;-68
2022/12/15 10:00:27;;;;;;;;;;;;;;;;;;5018866;28;20049;-67
2022/12/15 10:03:04;;;;;;;12.25;4.55;;;;;;;;;;5013594;28;19924;-67
2022/12/15 10:05:34;;;;;;;18.02;6.55;;;;;;;;;;4999732;28;20298;-68
2022/12/15 10:08:01;;;;;;;15.27;6.00;;;;;;;;;;5044585;28;20076;-68
2022/12/15 10:10:31;;;;;;;14.55;5.88;;;;;;;;;;5017412;28;20067;-66
2022/12/15 10:13:06;;;;;;;14.70;6.45;;;;;;;;;;5005416;28;20179;-68
2022/12/15 10:15:38;;;;;;;17.60;6.63;;;;;;;;;;4962270;28;20140;-68
2022/12/15 10:18:06;;;;;;;16.08;6.25;;;;;;;;;;4996042;28;20061;-67
2022/12/15 10:20:35;;;;;;;18.27;5.90;;;;;;;;;;5013702;28;20151;-68
2022/12/15 10:23:12;;;;;;;15.02;6.22;;;;;;;;;;5020863;28;20143;-68
2022/12/15 10:25:38;;;;;;;17.98;6.63;;;;;;;;;;4994668;28;21013;-68
2022/12/15 10:28:25;;;;;;;18.33;6.75;;;;;;;;;;5041842;28;20052;-68
2022/12/15 10:30:57;;;;;;;18.83;6.68;;;;;;;;;;5034301;28;20052;-67
2022/12/15 10:33:25;;;;;;;16.05;6.82;;;;;;;;;;5008981;28;20080;-67
2022/12/15 10:35:52;;;;;;;17.77;6.85;;;;;;;;;;5035971;28;20059;-69
2022/12/15 10:38:24;;;;;;;19.90;6.90;;;;;;;;;;5021496;28;20076;-67
2022/12/15 10:40:51;;;;;;;17.25;6.63;;;;;;;;;;5024474;28;20045;-67
2022/12/15 10:43:30;;;;;;;19.30;7.28;;;;;;;;;;5031150;28;20060;-68
2022/12/15 10:46:00;;;;;;;15.65;6.72;;;;;;;;;;5010066;28;20049;-67
2022/12/15 10:48:28;;;;;;;16.42;6.95;;;;;;;;;;4968933;28;20141;-67
2022/12/15 10:51:08;;;;;;;20.27;7.28;;;;;;;;;;4980812;28;20056;-67
2022/12/15 10:53:39;;;;;;;20.08;6.88;;;;;;;;;;5028079;28;20064;-67
2022/12/15 10:56:06;;;;;;;16.70;7.47;;;;;;;;;;4994956;28;20059;-67
2022/12/15 10:58:44;;;;;;;21.58;6.78;;;;;;;;;;5014650;28;20080;-68
2022/12/15 11:01:15;;;;;;;20.63;7.68;;;;;;;;;;5013559;28;20057;-67
2022/12/15 11:03:41;;;;;;;20.08;7.88;;;;;;;;;;5019496;28;20053;-66
2022/12/15 11:06:10;;;;;;;17.73;7.75;;;;;;;;;;5008349;28;20091;-67
2022/12/15 11:08:37;;;;;;;17.92;6.55;;;;;;;;;;5045131;28;20259;-67
2022/12/15 11:14:04;;;;;;;20.05;7.18;;;;;;;;;;5038709;28;20094;-68
2022/12/15 11:16:31;;;;;;;20.05;7.13;;;;;;;;;;5013564;28;20048;-69
2022/12/15 11:19:02;;;;;;;17.45;6.15;;;;;;;;;;5027062;28;20048;-70
2022/12/15 11:21:32;;;;;;;19.10;7.05;;;;;;;;;;5026460;28;20280;-69
2022/12/15 11:24:03;;;;;;;18.77;7.75;;;;;;;;;;5018768;28;20056;-69
2022/12/15 11:26:37;;;;;;;19.02;7.97;;;;;;;;;;4983109;28;20136;-71
2022/12/15 11:29:10;;;;;;;19.10;7.72;;;;;;;;;;4992040;28;20060;-69
2022/12/15 11:31:41;;;;;;;21.63;7.85;;;;;;;;;;4979835;28;20045;-69
2022/12/15 11:34:08;;;;;;;;;;;;;;;;;;4989898;28;20053;-68
2022/12/15 11:36:45;;;;;;;20.13;7.13;;;;;;;;;;4972607;28;19931;-69
2022/12/15 11:39:16;;;;;;;20.17;7.28;;;;;;;;;;5015500;28;20068;-67
2022/12/15 11:41:50;;;;;;;20.05;7.63;;;;;;;;;;5014734;28;20049;-67
2022/12/15 11:44:24;;;;;;;17.75;7.90;;;;;;;;;;5030364;28;20064;-67
2022/12/15 11:46:55;;;;;;;27.38;7.93;;;;;;;;;;4980153;28;20048;-67
2022/12/15 11:49:34;;;;;;;21.55;7.13;;;;;;;;;;5025521;28;20057;-67
2022/12/15 11:52:04;;;;;;;19.95;8.00;;;;;;;;;;5029258;28;20136;-67
2022/12/15 11:54:39;;;;;;;24.55;8.68;;;;;;;;;;5005388;28;20053;-67
2022/12/15 11:57:17;;;;;;;16.13;6.95;;;;;;;;;;4972867;28;20052;-68
2022/12/15 11:59:52;;;;;;;20.25;8.38;;;;;;;;;;5034055;28;20052;-67
2022/12/15 12:02:38;;;;;;;19.70;7.47;;;;;;;;;;4991113;28;20057;-67
2022/12/15 12:05:19;;;;;;;19.23;7.40;;;;;;;;;;4992940;28;20056;-66
2022/12/15 12:07:47;;;;;;;19.38;7.68;;;;;;;;;;5012827;28;20052;-67
2022/12/15 12:10:22;;;;;;;22.13;8.10;;;;;;;;;;5017568;28;20061;-66
2022/12/15 12:12:51;;;;;;;17.08;7.47;;;;;;;;;;5016412;28;20129;-65
2022/12/15 12:15:26;;;;;;;18.40;7.80;;;;;;;;;;4989094;28;20291;-65
2022/12/15 12:17:55;;;;;;;17.50;7.85;;;;;;;;;;4997853;28;20048;-66
2022/12/15 12:20:24;;;;;;;21.40;8.13;;;;;;;;;;5034186;28;20214;-65
2022/12/15 12:22:58;;;;;;;23.08;8.68;;;;;;;;;;5016305;28;20057;-66
2022/12/15 12:25:25;;;;;;;20.10;8.57;;;;;;;;;;4984377;28;20125;-66
2022/12/15 12:27:53;;;;;;;22.02;8.38;;;;;;;;;;5023462;28;20053;-67
2022/12/15 12:30:22;;;;;;;21.08;8.82;;;;;;;;;;5058232;28;20114;-66
2022/12/15 12:32:55;;;;;;;21.13;8.52;;;;;;;;;;5026512;28;20287;-66
2022/12/15 12:35:25;;;;;;;20.15;7.35;;;;;;;;;;4988207;28;20052;-67
2022/12/15 12:37:53;;;;;;;20.10;8.15;;;;;;;;;;5040169;28;20065;-66
2022/12/15 12:40:22;;;;;;;19.55;7.88;;;;;;;;;;5018519;28;20056;-66
2022/12/15 12:42:52;;;;;;;22.05;8.38;;;;;;;;;;5021517;28;20049;-66
2022/12/15 12:45:19;;;;;;;21.75;8.80;;;;;;;;;;4969937;28;20150;-66
2022/12/15 12:47:49;;;;;;;22.70;9.60;;;;;;;;;;5017573;28;20065;-65
2022/12/15 12:50:18;;;;;;;21.75;9.02;;;;;;;;;;5040843;28;20163;-66
2022/12/15 12:52:48;;;;;;;21.92;9.10;;;;;;;;;;5039903;28;20106;-66
2022/12/15 12:55:24;;;;;;;17.27;7.50;;;;;;;;;;5023696;28;20057;-68
2022/12/15 12:57:52;;;;;;;20.95;8.10;;;;;;;;;;5027065;28;20052;-66
2022/12/15 13:00:23;;;;;;;21.38;8.25;;;;;;;;;;5025723;28;20053;-65
2022/12/15 13:03:17;;;;;;;23.13;9.07;;;;;;;;;;5014108;28;20057;-67
2022/12/15 13:05:46;;;;;;;19.00;7.97;;;;;;;;;;4979501;28;20144;-67
2022/12/15 13:08:18;;;;;;;20.75;8.48;;;;;;;;;;4991351;28;20064;-67
2022/12/15 13:10:47;;;;;;;17.77;7.85;;;;;;;;;;5011997;28;20053;-66
2022/12/15 13:13:15;;;;;;;;;;;;;;;;;;5005311;28;20065;-67
2022/12/15 13:15:42;;;;;;;;;;;;;;;;;;4970099;28;19924;-66
2022/12/15 13:18:14;;;;;;;18.73;6.45;;;;;;;;;;5001325;28;19985;-66
2022/12/15 13:20:41;;;;;;;21.10;8.35;;;;;;;;;;5028992;28;20140;-65
2022/12/15 13:23:26;;;;;;;20.52;7.35;;;;;;;;;;4991482;28;20059;-65
2022/12/15 13:26:11;;;;;;;16.25;7.57;;;;;;;;;;5018134;28;20048;-66
2022/12/15 13:28:42;;;;;;;19.50;8.18;;;;;;;;;;4944726;28;20081;-66
2022/12/15 13:31:27;;;;;;;21.13;8.80;;;;;;;;;;4982494;28;20057;-66
2022/12/15 13:34:12;;;;;;;20.42;7.50;;;;;;;;;;5028444;28;20044;-65
2022/12/15 13:36:46;;;;;;;23.15;8.18;;;;;;;;;;4994981;28;20080;-66
2022/12/15 13:39:46;;;;;;;22.10;8.68;;;;;;;;;;4995698;28;20061;-65
2022/12/15 13:42:39;;;;;;;19.17;8.05;;;;;;;;;;4952075;28;20058;-66
2022/12/15 13:45:21;;;;;;;17.75;7.20;;;;;;;;;;4938111;28;20058;-66
2022/12/15 13:47:53;;;;;;;18.98;8.15;;;;;;;;;;4947400;28;20091;-66
2022/12/15 13:50:27;;;;;;;21.85;9.00;;;;;;;;;;4977563;28;20265;-65
2022/12/15 13:52:55;;;;;;;16.90;8.27;;;;;;;;;;4971968;28;20173;-66
2022/12/15 13:55:25;;;;;;;18.90;7.93;;;;;;;;;;4942130;28;20050;-65
2022/12/15 13:57:54;;;;;;;23.42;8.18;;;;;;;;;;4985730;28;20053;-64
2022/12/15 14:00:24;;;;;;;19.83;8.55;;;;;;;;;;4983569;28;20053;-66
2022/12/15 14:03:05;;;;;;;20.17;8.73;;;;;;;;;;4988739;28;20071;-65
2022/12/15 14:05:32;;;;;;;20.52;8.15;;;;;;;;;;5004180;28;20124;-66
2022/12/15 14:07:59;;;;;;;20.20;8.88;;;;;;;;;;5003385;28;20093;-65
2022/12/15 14:10:28;;;;;;;23.05;8.85;;;;;;;;;;4963578;28;20084;-65
2022/12/15 14:12:58;;;;;;;24.02;9.45;;;;;;;;;;4971576;28;20060;-67
2022/12/15 14:15:29;;;;;;;19.98;8.98;;;;;;;;;;4996657;28;20080;-65
2022/12/15 14:17:59;;;;;;;22.98;9.38;;;;;;;;;;5002434;28;20068;-65
2022/12/15 14:20:26;;;;;;;23.50;9.88;;;;;;;;;;5001182;28;20052;-67
2022/12/15 14:22:53;;;;;;;24.20;8.63;;;;;;;;;;5016310;28;20049;-66
2022/12/15 14:25:22;;;;;;;25.15;8.98;;;;;;;;;;5017460;28;20131;-68
2022/12/15 14:27:51;;;;;;;20.85;9.50;;;;;;;;;;5006425;28;20163;-68
2022/12/15 14:30:27;;;;;;;22.58;9.52;;;;;;;;;;4996510;28;20109;-67
2022/12/15 14:32:55;;;;;;;25.52;9.18;;;;;;;;;;5004096;28;20080;-68
2022/12/15 14:35:22;;;;;;;;;;;;;;;;;;4995608;28;20057;-68
2022/12/15 14:37:50;;;;;;;18.85;7.55;;;;;;;;;;5028489;28;19920;-68
2022/12/15 14:40:19;;;;;;;21.80;8.30;;;;;;;;;;5026077;28;20063;-67
2022/12/15 14:42:46;;;;;;;19.48;8.45;;;;;;;;;;5039390;28;20061;-68
2022/12/15 14:45:18;;;;;;;18.58;8.30;;;;;;;;;;5043765;28;20064;-70
2022/12/15 14:47:50;;;;;;;21.98;8.30;;;;;;;;;;5032992;28;20166;-68
2022/12/15 14:50:22;;;;;;;22.13;9.60;;;;;;;;;;5002867;28;20063;-67
2022/12/15 14:52:54;;;;;;;24.05;9.27;;;;;;;;;;5035645;28;20056;-68
2022/12/15 14:55:27;;;;;;;19.85;8.55;;;;;;;;;;5007398;28;20054;-67
2022/12/15 14:57:55;;;;;;;22.98;9.15;;;;;;;;;;5005258;28;20055;-69
2022/12/15 15:00:25;;;;;;;18.83;8.38;;;;;;;;;;5023027;28;20193;-67
2022/12/15 15:03:06;;;;;;;21.85;8.38;;;;;;;;;;5008279;28;20045;-68
2022/12/15 15:05:40;;;;;;;22.20;8.52;;;;;;;;;;5005787;28;21231;-68
2022/12/15 15:08:11;;;;;;;21.30;9.33;;;;;;;;;;5038716;28;20063;-68
2022/12/15 15:10:37;;;;;;;18.77;8.65;;;;;;;;;;5017359;28;20295;-67
2022/12/15 15:13:15;;;;;;;22.35;9.57;;;;;;;;;;5022736;28;20060;-68
2022/12/15 15:15:43;;;;;;;23.37;8.63;;;;;;;;;;5011395;28;20048;-68
2022/12/15 15:18:15;;;;;;;18.93;7.93;;;;;;;;;;5023171;28;20216;-68
2022/12/15 15:20:50;;;;;;;20.63;9.48;;;;;;;;;;5008311;28;20397;-68
2022/12/15 15:23:19;;;;;;;19.42;8.52;;;;;;;;;;5027362;28;20079;-67
2022/12/15 15:25:50;;;;;;;19.45;9.30;;;;;;;;;;5002456;28;20065;-68
2022/12/15 15:28:21;;;;;;;19.08;8.63;;;;;;;;;;5028106;28;20115;-68
2022/12/15 15:30:51;;;;;;;25.95;8.88;;;;;;;;;;4989171;28;20045;-67
2022/12/15 15:33:18;;;;;;;22.80;8.75;;;;;;;;;;5004421;28;20049;-68
2022/12/15 15:35:49;;;;;;;22.17;8.93;;;;;;;;;;4988137;28;20128;-68
2022/12/15 15:38:35;;;;;;;18.85;8.60;;;;;;;;;;5002464;28;20060;-67
2022/12/15 15:41:15;;;;;;;18.60;7.93;;;;;;;;;;4965634;28;20057;-68
2022/12/15 15:43:41;;;;;;;20.58;8.25;;;;;;;;;;5020135;28;20049;-67
2022/12/15 15:46:10;;;;;;;21.42;8.60;;;;;;;;;;5000805;28;20049;-68
2022/12/15 15:48:37;;;;;;;20.52;8.35;;;;;;;;;;5018351;28;20083;-68
2022/12/15 15:51:05;;;;;;;21.13;8.55;;;;;;;;;;5029750;28;20048;-68
2022/12/15 15:53:34;;;;;;;20.30;9.13;;;;;;;;;;5006771;28;20041;-65
2022/12/15 15:56:02;;;;;;;17.83;8.45;;;;;;;;;;4940416;28;20079;-67
2022/12/15 15:58:28;;;;;;;18.13;8.10;;;;;;;;;;5015868;28;20072;-67
2022/12/15 16:00:55;;;;;;;17.60;8.50;;;;;;;;;;5002586;28;20292;-67
2022/12/15 16:03:21;;;;;;;23.27;9.35;;;;;;;;;;5011172;28;20156;-67
2022/12/15 16:05:49;;;;;;;16.92;7.80;;;;;;;;;;4976301;28;20062;-67
2022/12/15 16:08:18;;;;;;;21.35;8.13;;;;;;;;;;5056852;28;20052;-68
2022/12/15 16:10:47;;;;;;;20.67;8.55;;;;;;;;;;5001315;28;20049;-66
2022/12/15 16:13:25;;;;;;;;;;;;;;;;;;4987882;28;20060;-69
2022/12/15 16:15:54;;;;;;;18.50;6.88;;;;;;;;;;4957945;28;19926;-68
2022/12/15 16:18:23;;;;;;;18.65;7.88;;;;;;;;;;4998378;28;20052;-69
2022/12/15 16:20:51;;;;;;;20.95;8.93;;;;;;;;;;5034490;28;20053;-65
2022/12/15 16:23:19;;;;;;;20.30;8.82;;;;;;;;;;5030128;28;20060;-66
2022/12/15 16:25:50;;;;;;;21.58;8.43;;;;;;;;;;5024259;28;20144;-67
2022/12/15 16:28:17;;;;;;;19.30;8.23;;;;;;;;;;5007597;28;20049;-67
2022/12/15 16:30:44;;;;;;;16.48;7.68;;;;;;;;;;5025606;28;20051;-67
2022/12/15 16:33:11;;;;;;;21.65;8.65;;;;;;;;;;5031496;28;20056;-67
2022/12/15 16:35:38;;;;;;;22.33;8.55;;;;;;;;;;5006644;28;21808;-67
2022/12/15 16:38:05;;;;;;;21.55;8.00;;;;;;;;;;5029899;28;20056;-67
2022/12/15 16:40:36;;;;;;;22.63;8.38;;;;;;;;;;5029681;28;20060;-66
2022/12/15 16:43:10;;;;;;;19.30;8.10;;;;;;;;;;5011680;28;20056;-66
2022/12/15 16:45:37;;;;;;;18.95;8.32;;;;;;;;;;5011270;28;20057;-67
2022/12/15 16:48:04;;;;;;;20.38;8.68;;;;;;;;;;5022869;28;20063;-66
2022/12/15 16:50:31;;;;;;;22.58;8.02;;;;;;;;;;5022847;28;20056;-67
2022/12/15 16:52:59;;;;;;;15.88;7.32;;;;;;;;;;5041928;28;20059;-66
2022/12/15 16:55:26;;;;;;;18.50;7.57;;;;;;;;;;5038944;28;20159;-68
2022/12/15 16:57:54;;;;;;;19.08;8.23;;;;;;;;;;5013320;28;20045;-68
2022/12/15 17:00:27;;;;;;;20.08;8.20;;;;;;;;;;5028953;28;20053;-67
2022/12/15 17:02:54;;;;;;;22.05;8.15;;;;;;;;;;5031012;28;20053;-68
2022/12/15 17:05:22;;;;;;;21.10;8.55;;;;;;;;;;5011074;28;20126;-69
2022/12/15 17:07:50;;;;;;;16.48;7.43;;;;;;;;;;5015498;28;20049;-69
2022/12/15 17:10:18;;;;;;;20.35;8.13;;;;;;;;;;5039350;28;20139;-69
2022/12/15 17:12:45;;;;;;;21.60;8.30;;;;;;;;;;5057336;28;20143;-68
2022/12/15 17:15:19;;;;;;;18.95;8.30;;;;;;;;;;5031431;28;20079;-70
2022/12/15 17:17:47;;;;;;;19.55;8.77;;;;;;;;;;4976364;28;20045;-70
2022/12/15 17:20:19;;;;;;;19.38;7.93;;;;;;;;;;5035344;28;20060;-67
2022/12/15 17:22:47;;;;;;;24.30;8.77;;;;;;;;;;5041863;28;20060;-69
2022/12/15 17:25:19;;;;;;;21.08;8.15;;;;;;;;;;5033405;28;20114;-68
2022/12/15 17:27:48;;;;;;;18.67;7.68;;;;;;;;;;5001366;28;20044;-69
2022/12/15 17:30:15;;;;;;;19.98;8.25;;;;;;;;;;4955026;28;20057;-70
2022/12/15 17:32:42;;;;;;;16.70;7.75;;;;;;;;;;4982204;28;20045;-70
2022/12/15 17:35:14;;;;;;;19.52;8.48;;;;;;;;;;5015134;28;20068;-68
2022/12/15 17:37:41;;;;;;;20.85;8.73;;;;;;;;;;5018922;28;20048;-70
2022/12/15 17:40:15;;;;;;;19.33;8.20;;;;;;;;;;5034030;28;20045;-66
2022/12/15 17:42:41;;;;;;;18.63;8.63;;;;;;;;;;5020849;28;20049;-67
2022/12/15 17:45:14;;;;;;;18.23;8.55;;;;;;;;;;5038179;28;20059;-67
2022/12/15 17:47:41;;;;;;;16.85;7.43;;;;;;;;;;5018053;28;20056;-70
2022/12/15 17:50:10;;;;;;;17.45;8.40;;;;;;;;;;5050031;28;20048;-70
2022/12/15 17:52:39;;;;;;;25.92;8.52;;;;;;;;;;5026218;28;20056;-70